createdAt,value
2023-08-19T00:00:31.505Z,16.81
2023-08-19T00:01:31.477Z,16.84
2023-08-19T00:02:31.479Z,16.88
2023-08-19T00:03:31.478Z,16.91
2023-08-19T00:04:31.448Z,16.94
2023-08-19T00:05:31.389Z,16.96
2023-08-19T00:06:31.438Z,16.97
2023-08-19T00:07:31.690Z,16.98
2023-08-19T00:08:31.404Z,16.99
2023-08-19T00:09:31.366Z,17.00
2023-08-19T00:10:31.383Z,17.01
2023-08-19T00:11:31.343Z,17.01
2023-08-19T00:12:31.321Z,17.01
2023-08-19T00:13:31.321Z,17.00
2023-08-19T00:14:31.342Z,16.99
2023-08-19T00:15:31.332Z,16.97
2023-08-19T00:16:31.406Z,16.96
2023-08-19T00:17:31.531Z,16.95
2023-08-19T00:18:31.300Z,16.95
2023-08-19T00:19:31.272Z,16.93
2023-08-19T00:20:31.246Z,16.92
2023-08-19T00:21:31.277Z,16.91
2023-08-19T00:22:31.289Z,16.90
2023-08-19T00:23:31.261Z,16.89
2023-08-19T00:24:31.249Z,16.89
2023-08-19T00:25:31.219Z,16.92
2023-08-19T00:26:31.356Z,16.96
2023-08-19T00:27:31.502Z,17.00
2023-08-19T00:28:31.198Z,17.01
2023-08-19T00:29:31.184Z,17.02
2023-08-19T00:30:31.218Z,17.02
2023-08-19T00:31:31.163Z,17.01
2023-08-19T00:32:31.202Z,17.00
2023-08-19T00:33:31.117Z,16.98
2023-08-19T00:34:31.133Z,16.96
2023-08-19T00:35:31.135Z,16.94
2023-08-19T00:36:31.143Z,16.95
2023-08-19T00:37:31.342Z,16.95
2023-08-19T00:38:31.120Z,16.96
2023-08-19T00:39:31.080Z,16.96
2023-08-19T00:40:31.076Z,16.94
2023-08-19T00:41:31.037Z,16.90
2023-08-19T00:42:31.016Z,16.86
2023-08-19T00:43:31.050Z,16.82
2023-08-19T00:44:31.026Z,16.78
2023-08-19T00:45:31.043Z,16.74
2023-08-19T00:46:31.096Z,16.70
2023-08-19T00:47:31.439Z,16.66
2023-08-19T00:48:30.976Z,16.60
2023-08-19T00:49:30.993Z,16.55
2023-08-19T00:50:30.972Z,16.52
2023-08-19T00:51:30.929Z,16.53
2023-08-19T00:52:31.010Z,16.57
2023-08-19T00:53:30.932Z,16.62
2023-08-19T00:54:30.916Z,16.67
2023-08-19T00:55:30.909Z,16.72
2023-08-19T00:56:30.872Z,16.74
2023-08-19T00:57:31.144Z,16.73
2023-08-19T00:58:30.911Z,16.68
2023-08-19T00:59:30.852Z,16.60
2023-08-19T01:00:30.876Z,16.53
2023-08-19T01:01:30.891Z,16.48
2023-08-19T01:02:30.888Z,16.44
2023-08-19T01:03:30.976Z,16.41
2023-08-19T01:04:30.856Z,16.39
2023-08-19T01:05:30.800Z,16.38
2023-08-19T01:06:30.803Z,16.36
2023-08-19T01:07:30.949Z,16.35
2023-08-19T01:08:30.797Z,16.34
2023-08-19T01:09:30.768Z,16.32
2023-08-19T01:10:30.741Z,16.31
2023-08-19T01:11:30.777Z,16.30
2023-08-19T01:12:30.761Z,16.28
2023-08-19T01:13:30.768Z,16.27
2023-08-19T01:14:30.727Z,16.25
2023-08-19T01:15:30.687Z,16.23
2023-08-19T01:16:30.780Z,16.21
2023-08-19T01:17:31.247Z,16.20
2023-08-19T01:18:30.737Z,16.19
2023-08-19T01:19:30.647Z,16.18
2023-08-19T01:20:30.632Z,16.19
2023-08-19T01:21:30.656Z,16.20
2023-08-19T01:22:30.609Z,16.23
2023-08-19T01:23:30.634Z,16.27
2023-08-19T01:24:30.614Z,16.31
2023-08-19T01:25:30.573Z,16.34
2023-08-19T01:26:30.556Z,16.38
2023-08-19T01:27:30.887Z,16.41
2023-08-19T01:28:30.581Z,16.44
2023-08-19T01:29:30.556Z,16.47
2023-08-19T01:30:30.582Z,16.50
2023-08-19T01:31:30.579Z,16.51
2023-08-19T01:32:30.544Z,16.51
2023-08-19T01:33:30.523Z,16.52
2023-08-19T01:34:30.504Z,16.54
2023-08-19T01:35:30.488Z,16.55
2023-08-19T01:36:30.490Z,16.56
2023-08-19T01:37:30.748Z,16.57
2023-08-19T01:38:30.460Z,16.57
2023-08-19T01:39:30.415Z,16.57
2023-08-19T01:40:30.485Z,16.57
2023-08-19T01:41:30.392Z,16.57
2023-08-19T01:42:30.387Z,16.56
2023-08-19T01:43:30.392Z,16.54
2023-08-19T01:44:30.390Z,16.52
2023-08-19T01:45:30.381Z,16.51
2023-08-19T01:46:30.425Z,16.48
2023-08-19T01:47:30.743Z,16.45
2023-08-19T01:48:30.351Z,16.42
2023-08-19T01:49:30.333Z,16.38
2023-08-19T01:50:30.310Z,16.34
2023-08-19T01:51:30.310Z,16.30
2023-08-19T01:52:30.317Z,16.27
2023-08-19T01:53:30.315Z,16.24
2023-08-19T01:54:30.256Z,16.22
2023-08-19T01:55:30.282Z,16.21
2023-08-19T01:56:30.279Z,16.19
2023-08-19T01:57:30.725Z,16.18
2023-08-19T01:58:30.210Z,16.16
2023-08-19T01:59:30.246Z,16.14
2023-08-19T02:00:30.230Z,16.13
2023-08-19T02:01:30.231Z,16.11
2023-08-19T02:02:30.181Z,16.10
2023-08-19T02:03:30.226Z,16.09
2023-08-19T02:04:30.180Z,16.09
2023-08-19T02:05:30.190Z,16.08
2023-08-19T02:06:30.202Z,16.09
2023-08-19T02:07:30.484Z,16.10
2023-08-19T02:08:30.181Z,16.12
2023-08-19T02:09:30.242Z,16.13
2023-08-19T02:10:30.145Z,16.13
2023-08-19T02:11:30.151Z,16.13
2023-08-19T02:12:30.062Z,16.12
2023-08-19T02:13:30.144Z,16.11
2023-08-19T02:14:30.122Z,16.10
2023-08-19T02:15:30.112Z,16.09
2023-08-19T02:16:30.061Z,16.08
2023-08-19T02:17:30.557Z,16.06
2023-08-19T02:18:30.056Z,16.03
2023-08-19T02:19:30.070Z,15.99
2023-08-19T02:20:30.021Z,15.94
2023-08-19T02:21:29.969Z,15.89
2023-08-19T02:22:29.979Z,15.85
2023-08-19T02:23:29.969Z,15.82
2023-08-19T02:24:29.943Z,15.80
2023-08-19T02:25:29.974Z,15.78
2023-08-19T02:26:29.951Z,15.75
2023-08-19T02:27:30.266Z,15.72
2023-08-19T02:28:29.931Z,15.69
2023-08-19T02:29:29.922Z,15.66
2023-08-19T02:30:29.922Z,15.64
2023-08-19T02:31:29.941Z,15.62
2023-08-19T02:32:29.912Z,15.62
2023-08-19T02:33:29.864Z,15.63
2023-08-19T02:34:29.855Z,15.64
2023-08-19T02:35:29.824Z,15.65
2023-08-19T02:36:29.888Z,15.64
2023-08-19T02:37:30.209Z,15.63
2023-08-19T02:38:29.803Z,15.62
2023-08-19T02:39:29.801Z,15.61
2023-08-19T02:40:29.772Z,15.61
2023-08-19T02:41:29.786Z,15.62
2023-08-19T02:42:29.767Z,15.62
2023-08-19T02:43:29.741Z,15.63
2023-08-19T02:44:29.758Z,15.65
2023-08-19T02:45:29.724Z,15.66
2023-08-19T02:46:29.743Z,15.68
2023-08-19T02:47:30.219Z,15.69
2023-08-19T02:48:29.828Z,15.71
2023-08-19T02:49:29.678Z,15.72
2023-08-19T02:50:29.678Z,15.73
2023-08-19T02:51:29.677Z,15.72
2023-08-19T02:52:29.679Z,15.72
2023-08-19T02:53:29.712Z,15.71
2023-08-19T02:54:29.614Z,15.69
2023-08-19T02:55:29.641Z,15.67
2023-08-19T02:56:29.593Z,15.65
2023-08-19T02:57:30.073Z,15.64
2023-08-19T02:58:29.613Z,15.63
2023-08-19T02:59:29.598Z,15.63
2023-08-19T03:00:29.569Z,15.64
2023-08-19T03:01:29.535Z,15.64
2023-08-19T03:02:29.601Z,15.66
2023-08-19T03:03:29.692Z,15.69
2023-08-19T03:04:29.589Z,15.72
2023-08-19T03:05:29.529Z,15.75
2023-08-19T03:06:29.488Z,15.77
2023-08-19T03:07:29.504Z,15.79
2023-08-19T03:08:29.493Z,15.80
2023-08-19T03:09:29.548Z,15.81
2023-08-19T03:10:29.504Z,15.82
2023-08-19T03:11:29.462Z,15.81
2023-08-19T03:12:29.462Z,15.81
2023-08-19T03:13:29.424Z,15.80
2023-08-19T03:14:29.423Z,15.79
2023-08-19T03:15:29.435Z,15.78
2023-08-19T03:16:29.397Z,15.77
2023-08-19T03:17:29.418Z,15.75
2023-08-19T03:18:29.368Z,15.73
2023-08-19T03:19:29.346Z,15.71
2023-08-19T03:20:29.424Z,15.70
2023-08-19T03:21:29.342Z,15.67
2023-08-19T03:22:29.319Z,15.64
2023-08-19T03:23:29.337Z,15.61
2023-08-19T03:24:29.334Z,15.59
2023-08-19T03:25:29.277Z,15.60
2023-08-19T03:26:29.312Z,15.61
2023-08-19T03:27:29.290Z,15.61
2023-08-19T03:28:29.316Z,15.62
2023-08-19T03:29:29.265Z,15.61
2023-08-19T03:30:29.249Z,15.59
2023-08-19T03:31:29.312Z,15.56
2023-08-19T03:32:29.281Z,15.51
2023-08-19T03:33:29.254Z,15.46
2023-08-19T03:34:29.219Z,15.41
2023-08-19T03:35:29.204Z,15.35
2023-08-19T03:36:29.191Z,15.31
2023-08-19T03:37:29.180Z,15.28
2023-08-19T03:38:29.160Z,15.26
2023-08-19T03:39:29.177Z,15.26
2023-08-19T03:40:29.129Z,15.28
2023-08-19T03:41:29.182Z,15.31
2023-08-19T03:42:29.098Z,15.35
2023-08-19T03:43:29.134Z,15.38
2023-08-19T03:44:29.101Z,15.40
2023-08-19T03:45:29.079Z,15.41
2023-08-19T03:46:29.134Z,15.41
2023-08-19T03:47:29.102Z,15.41
2023-08-19T03:48:29.048Z,15.39
2023-08-19T03:49:29.022Z,15.37
2023-08-19T03:50:29.022Z,15.32
2023-08-19T03:51:29.008Z,15.26
2023-08-19T03:52:29.062Z,15.20
2023-08-19T03:53:29.014Z,15.16
2023-08-19T03:54:28.971Z,15.13
2023-08-19T03:55:28.987Z,15.10
2023-08-19T03:56:28.972Z,15.08
2023-08-19T03:57:28.948Z,15.07
2023-08-19T03:58:28.967Z,15.06
2023-08-19T03:59:28.923Z,15.06
2023-08-19T04:00:28.937Z,15.08
2023-08-19T04:01:28.941Z,15.10
2023-08-19T04:02:28.920Z,15.12
2023-08-19T04:03:29.072Z,15.15
2023-08-19T04:04:28.893Z,15.18
2023-08-19T04:05:28.854Z,15.20
2023-08-19T04:06:28.838Z,15.24
2023-08-19T04:07:28.848Z,15.27
2023-08-19T04:08:28.855Z,15.29
2023-08-19T04:09:28.818Z,15.28
2023-08-19T04:10:28.817Z,15.26
2023-08-19T04:11:28.794Z,15.22
2023-08-19T04:12:28.812Z,15.18
2023-08-19T04:13:28.789Z,15.14
2023-08-19T04:14:28.771Z,15.10
2023-08-19T04:15:28.789Z,15.08
2023-08-19T04:16:28.785Z,15.09
2023-08-19T04:17:28.937Z,15.10
2023-08-19T04:18:28.762Z,15.13
2023-08-19T04:19:28.700Z,15.16
2023-08-19T04:20:28.723Z,15.19
2023-08-19T04:21:28.713Z,15.21
2023-08-19T04:22:28.693Z,15.22
2023-08-19T04:23:28.729Z,15.23
2023-08-19T04:24:28.685Z,15.25
2023-08-19T04:25:28.669Z,15.27
2023-08-19T04:26:28.620Z,15.28
2023-08-19T04:27:28.617Z,15.29
2023-08-19T04:28:28.659Z,15.31
2023-08-19T04:29:28.616Z,15.32
2023-08-19T04:30:28.630Z,15.31
2023-08-19T04:31:28.640Z,15.29
2023-08-19T04:32:28.683Z,15.25
2023-08-19T04:33:28.605Z,15.22
2023-08-19T04:34:28.546Z,15.19
2023-08-19T04:35:28.504Z,15.17
2023-08-19T04:36:28.508Z,15.16
2023-08-19T04:37:28.524Z,15.15
2023-08-19T04:38:28.535Z,15.15
2023-08-19T04:39:28.504Z,15.17
2023-08-19T04:40:28.481Z,15.21
2023-08-19T04:41:29.068Z,15.26
2023-08-19T04:42:28.455Z,15.32
2023-08-19T04:43:28.456Z,15.38
2023-08-19T04:44:28.434Z,15.45
2023-08-19T04:45:28.439Z,15.52
2023-08-19T04:46:28.411Z,15.58
2023-08-19T04:47:28.500Z,15.62
2023-08-19T04:48:28.446Z,15.67
2023-08-19T04:49:28.363Z,15.71
2023-08-19T04:50:28.384Z,15.76
2023-08-19T04:51:28.345Z,15.80
2023-08-19T04:52:28.354Z,15.84
2023-08-19T04:53:28.328Z,15.89
2023-08-19T04:54:28.378Z,15.94
2023-08-19T04:55:28.320Z,15.99
2023-08-19T04:56:28.321Z,16.04
2023-08-19T04:57:28.309Z,16.09
2023-08-19T04:58:28.252Z,16.15
2023-08-19T04:59:28.301Z,16.21
2023-08-19T05:00:28.298Z,16.28
2023-08-19T05:01:28.305Z,16.37
2023-08-19T05:02:28.250Z,16.46
2023-08-19T05:03:28.356Z,16.57
2023-08-19T05:04:28.255Z,16.68
2023-08-19T05:05:28.222Z,16.78
2023-08-19T05:06:28.210Z,16.85
2023-08-19T05:07:28.187Z,16.93
2023-08-19T05:08:28.190Z,17.02
2023-08-19T05:09:28.170Z,17.11
2023-08-19T05:10:28.220Z,17.20
2023-08-19T05:11:28.158Z,17.26
2023-08-19T05:12:28.124Z,17.28
2023-08-19T05:13:28.104Z,17.26
2023-08-19T05:14:28.129Z,17.21
2023-08-19T05:15:28.106Z,17.15
2023-08-19T05:16:28.152Z,17.10
2023-08-19T05:17:28.125Z,17.06
2023-08-19T05:18:28.080Z,17.03
2023-08-19T05:19:28.072Z,17.04
2023-08-19T05:20:28.073Z,17.05
2023-08-19T05:21:28.047Z,17.07
2023-08-19T05:22:28.061Z,17.09
2023-08-19T05:23:27.998Z,17.10
2023-08-19T05:24:28.053Z,17.11
2023-08-19T05:25:28.025Z,17.14
2023-08-19T05:26:27.990Z,17.18
2023-08-19T05:27:28.037Z,17.25
2023-08-19T05:28:28.003Z,17.32
2023-08-19T05:29:27.978Z,17.40
2023-08-19T05:30:27.996Z,17.48
2023-08-19T05:31:28.012Z,17.56
2023-08-19T05:32:27.993Z,17.63
2023-08-19T05:33:27.910Z,17.67
2023-08-19T05:34:27.933Z,17.69
2023-08-19T05:35:27.932Z,17.71
2023-08-19T05:36:27.917Z,17.75
2023-08-19T05:37:27.969Z,17.82
2023-08-19T05:38:27.881Z,17.91
2023-08-19T05:39:27.897Z,18.01
2023-08-19T05:40:27.885Z,18.12
2023-08-19T05:41:27.811Z,18.23
2023-08-19T05:42:27.848Z,18.33
2023-08-19T05:43:27.821Z,18.41
2023-08-19T05:44:27.800Z,18.46
2023-08-19T05:45:27.945Z,18.49
2023-08-19T05:46:27.788Z,18.52
2023-08-19T05:47:27.826Z,18.53
2023-08-19T05:48:27.785Z,18.55
2023-08-19T05:49:27.787Z,18.57
2023-08-19T05:50:27.841Z,18.59
2023-08-19T05:51:27.752Z,18.62
2023-08-19T05:52:27.708Z,18.66
2023-08-19T05:53:27.697Z,18.73
2023-08-19T05:54:27.723Z,18.83
2023-08-19T05:55:27.702Z,18.94
2023-08-19T05:56:27.705Z,19.05
2023-08-19T05:57:27.720Z,19.16
2023-08-19T05:58:27.650Z,19.27
2023-08-19T05:59:27.655Z,19.36
2023-08-19T06:00:27.694Z,19.43
2023-08-19T06:01:27.644Z,19.50
2023-08-19T06:02:27.621Z,19.57
2023-08-19T06:03:27.764Z,19.64
2023-08-19T06:04:27.630Z,19.72
2023-08-19T06:05:27.611Z,19.81
2023-08-19T06:06:27.639Z,19.89
2023-08-19T06:07:27.563Z,19.96
2023-08-19T06:08:27.592Z,20.02
2023-08-19T06:09:27.547Z,20.06
2023-08-19T06:10:27.530Z,20.05
2023-08-19T06:11:27.522Z,20.06
2023-08-19T06:12:27.535Z,20.11
2023-08-19T06:13:27.503Z,20.20
2023-08-19T06:14:27.507Z,20.30
2023-08-19T06:15:27.491Z,20.40
2023-08-19T06:16:27.472Z,20.51
2023-08-19T06:17:27.549Z,20.62
2023-08-19T06:18:27.476Z,20.69
2023-08-19T06:19:27.439Z,20.71
2023-08-19T06:20:27.438Z,20.70
2023-08-19T06:21:27.437Z,20.70
2023-08-19T06:22:27.462Z,20.72
2023-08-19T06:23:27.405Z,20.76
2023-08-19T06:24:27.406Z,20.82
2023-08-19T06:25:27.400Z,20.88
2023-08-19T06:26:27.380Z,20.95
2023-08-19T06:27:27.383Z,21.00
2023-08-19T06:28:27.406Z,21.05
2023-08-19T06:29:27.339Z,21.10
2023-08-19T06:30:27.296Z,21.17
2023-08-19T06:31:27.333Z,21.23
2023-08-19T06:32:27.318Z,21.30
2023-08-19T06:33:27.306Z,21.39
2023-08-19T06:34:27.292Z,21.48
2023-08-19T06:35:27.278Z,21.57
2023-08-19T06:36:27.288Z,21.64
2023-08-19T06:37:27.261Z,21.71
2023-08-19T06:38:27.311Z,21.76
2023-08-19T06:39:27.223Z,21.80
2023-08-19T06:40:27.210Z,21.84
2023-08-19T06:41:27.219Z,21.87
2023-08-19T06:42:27.187Z,21.89
2023-08-19T06:43:27.179Z,21.88
2023-08-19T06:44:27.174Z,21.87
2023-08-19T06:45:27.149Z,21.87
2023-08-19T06:46:27.180Z,21.88
2023-08-19T06:47:27.138Z,21.90
2023-08-19T06:48:27.122Z,21.94
2023-08-19T06:49:27.179Z,21.98
2023-08-19T06:50:27.097Z,22.00
2023-08-19T06:51:27.117Z,22.00
2023-08-19T06:52:27.083Z,22.03
2023-08-19T06:53:27.080Z,22.05
2023-08-19T06:54:27.061Z,22.06
2023-08-19T06:55:27.086Z,22.08
2023-08-19T06:56:27.035Z,22.09
2023-08-19T06:57:27.057Z,22.13
2023-08-19T06:58:27.019Z,22.19
2023-08-19T06:59:27.020Z,22.24
2023-08-19T07:00:27.041Z,22.25
2023-08-19T07:01:27.002Z,22.25
2023-08-19T07:02:27.028Z,22.25
2023-08-19T07:03:27.099Z,22.26
2023-08-19T07:04:26.975Z,22.31
2023-08-19T07:05:26.981Z,22.40
2023-08-19T07:06:26.955Z,22.49
2023-08-19T07:07:26.945Z,22.58
2023-08-19T07:08:26.928Z,22.68
2023-08-19T07:09:26.901Z,22.79
2023-08-19T07:10:26.886Z,22.89
2023-08-19T07:11:26.960Z,23.00
2023-08-19T07:12:26.893Z,23.06
2023-08-19T07:13:26.879Z,23.03
2023-08-19T07:14:26.868Z,22.96
2023-08-19T07:15:26.852Z,22.90
2023-08-19T07:16:26.852Z,22.88
2023-08-19T07:17:26.833Z,22.89
2023-08-19T07:18:26.824Z,22.96
2023-08-19T07:19:26.806Z,23.06
2023-08-19T07:20:26.806Z,23.18
2023-08-19T07:21:26.795Z,23.29
2023-08-19T07:22:26.789Z,23.37
2023-08-19T07:23:26.768Z,23.41
2023-08-19T07:24:26.756Z,23.45
2023-08-19T07:25:26.740Z,23.50
2023-08-19T07:26:26.773Z,23.58
2023-08-19T07:27:26.735Z,23.66
2023-08-19T07:28:26.710Z,23.71
2023-08-19T07:29:26.699Z,23.74
2023-08-19T07:30:26.724Z,23.75
2023-08-19T07:31:26.713Z,23.73
2023-08-19T07:32:26.728Z,23.73
2023-08-19T07:33:26.649Z,23.75
2023-08-19T07:34:26.625Z,23.81
2023-08-19T07:35:26.666Z,23.88
2023-08-19T07:36:26.584Z,23.95
2023-08-19T07:37:26.623Z,24.02
2023-08-19T07:38:26.606Z,24.11
2023-08-19T07:39:26.608Z,24.16
2023-08-19T07:40:26.580Z,24.16
2023-08-19T07:41:26.557Z,24.17
2023-08-19T07:42:26.601Z,24.24
2023-08-19T07:43:26.600Z,24.34
2023-08-19T07:44:26.560Z,24.46
2023-08-19T07:45:26.552Z,24.57
2023-08-19T07:46:26.576Z,24.61
2023-08-19T07:47:26.590Z,24.58
2023-08-19T07:48:26.544Z,24.48
2023-08-19T07:49:26.524Z,24.41
2023-08-19T07:50:26.475Z,24.40
2023-08-19T07:51:26.472Z,24.45
2023-08-19T07:52:26.479Z,24.54
2023-08-19T07:53:26.490Z,24.62
2023-08-19T07:54:26.438Z,24.65
2023-08-19T07:55:26.436Z,24.63
2023-08-19T07:56:26.412Z,24.62
2023-08-19T07:57:26.401Z,24.64
2023-08-19T07:58:26.432Z,24.63
2023-08-19T07:59:26.436Z,24.58
2023-08-19T08:00:26.379Z,24.54
2023-08-19T08:01:26.422Z,24.51
2023-08-19T08:02:28.073Z,24.47
2023-08-19T08:03:26.377Z,24.45
2023-08-19T08:04:26.362Z,24.46
2023-08-19T08:05:26.432Z,24.52
2023-08-19T08:06:26.347Z,24.61
2023-08-19T08:07:26.306Z,24.75
2023-08-19T08:08:26.286Z,24.90
2023-08-19T08:09:26.298Z,25.04
2023-08-19T08:10:26.258Z,25.16
2023-08-19T08:11:26.265Z,25.31
2023-08-19T08:12:26.258Z,25.48
2023-08-19T08:13:26.270Z,25.63
2023-08-19T08:14:26.251Z,25.78
2023-08-19T08:15:26.210Z,25.91
2023-08-19T08:16:26.241Z,26.01
2023-08-19T08:17:26.216Z,26.10
2023-08-19T08:18:26.249Z,26.17
2023-08-19T08:19:26.191Z,26.22
2023-08-19T08:20:26.200Z,26.28
2023-08-19T08:21:26.168Z,26.29
2023-08-19T08:22:26.165Z,26.23
2023-08-19T08:23:27.668Z,26.21
2023-08-19T08:24:26.144Z,26.27
2023-08-19T08:25:26.135Z,26.36
2023-08-19T08:26:26.132Z,26.45
2023-08-19T08:27:26.092Z,26.52
2023-08-19T08:28:26.109Z,26.49
2023-08-19T08:29:26.091Z,26.42
2023-08-19T08:30:26.114Z,26.34
2023-08-19T08:31:26.112Z,26.24
2023-08-19T08:32:26.060Z,26.22
2023-08-19T08:33:26.032Z,26.24
2023-08-19T08:34:26.049Z,26.27
2023-08-19T08:35:26.052Z,26.37
2023-08-19T08:36:26.007Z,26.47
2023-08-19T08:37:26.036Z,26.46
2023-08-19T08:38:26.008Z,26.38
2023-08-19T08:39:25.991Z,26.33
2023-08-19T08:40:25.983Z,26.29
2023-08-19T08:41:25.979Z,26.28
2023-08-19T08:42:25.943Z,26.30
2023-08-19T08:43:25.969Z,26.37
2023-08-19T08:44:25.917Z,26.46
2023-08-19T08:45:25.916Z,26.55
2023-08-19T08:46:25.928Z,26.67
2023-08-19T08:47:25.913Z,26.83
2023-08-19T08:48:25.898Z,27.00
2023-08-19T08:49:25.875Z,27.14
2023-08-19T08:50:25.849Z,27.26
2023-08-19T08:51:25.904Z,27.30
2023-08-19T08:52:25.860Z,27.30
2023-08-19T08:53:25.931Z,27.34
2023-08-19T08:54:25.849Z,27.43
2023-08-19T08:55:25.874Z,27.51
2023-08-19T08:56:25.853Z,27.57
2023-08-19T08:57:25.849Z,27.65
2023-08-19T08:58:25.784Z,27.73
2023-08-19T08:59:25.761Z,27.76
2023-08-19T09:00:25.796Z,27.75
2023-08-19T09:01:25.930Z,27.66
2023-08-19T09:02:25.732Z,27.60
2023-08-19T09:03:25.723Z,27.62
2023-08-19T09:04:25.779Z,27.69
2023-08-19T09:05:25.694Z,27.83
2023-08-19T09:06:27.322Z,27.98
2023-08-19T09:07:25.711Z,28.05
2023-08-19T09:08:25.682Z,28.10
2023-08-19T09:09:25.646Z,28.16
2023-08-19T09:10:25.651Z,28.23
2023-08-19T09:11:25.730Z,28.30
2023-08-19T09:12:25.620Z,28.36
2023-08-19T09:13:25.646Z,28.40
2023-08-19T09:14:25.614Z,28.46
2023-08-19T09:15:25.605Z,28.44
2023-08-19T09:16:25.579Z,28.38
2023-08-19T09:17:25.608Z,28.37
2023-08-19T09:18:25.565Z,28.40
2023-08-19T09:19:25.579Z,28.41
2023-08-19T09:20:25.553Z,28.43
2023-08-19T09:21:25.563Z,28.44
2023-08-19T09:22:25.594Z,28.43
2023-08-19T09:23:25.525Z,28.36
2023-08-19T09:24:25.509Z,28.31
2023-08-19T09:25:25.513Z,28.29
2023-08-19T09:26:25.533Z,28.32
2023-08-19T09:27:25.538Z,28.38
2023-08-19T09:28:25.465Z,28.48
2023-08-19T09:29:25.489Z,28.57
2023-08-19T09:30:25.450Z,28.66
2023-08-19T09:31:25.500Z,28.73
2023-08-19T09:32:25.467Z,28.72
2023-08-19T09:33:25.552Z,28.57
2023-08-19T09:34:25.415Z,28.38
2023-08-19T09:35:25.426Z,28.29
2023-08-19T09:36:25.389Z,28.25
2023-08-19T09:37:25.400Z,28.27
2023-08-19T09:38:25.388Z,28.35
2023-08-19T09:39:25.355Z,28.40
2023-08-19T09:40:25.349Z,28.38
2023-08-19T09:41:25.365Z,28.31
2023-08-19T09:42:25.322Z,28.23
2023-08-19T09:43:25.393Z,28.22
2023-08-19T09:44:25.318Z,28.33
2023-08-19T09:45:25.312Z,28.44
2023-08-19T09:46:25.323Z,28.47
2023-08-19T09:47:25.275Z,28.42
2023-08-19T09:48:25.291Z,28.35
2023-08-19T09:49:25.298Z,28.32
2023-08-19T09:50:25.247Z,28.37
2023-08-19T09:51:25.275Z,28.50
2023-08-19T09:52:25.226Z,28.59
2023-08-19T09:53:25.208Z,28.61
2023-08-19T09:54:25.296Z,28.66
2023-08-19T09:55:25.200Z,28.78
2023-08-19T09:56:25.194Z,28.84
2023-08-19T09:57:25.194Z,28.85
2023-08-19T09:58:25.172Z,28.87
2023-08-19T09:59:25.177Z,28.91
2023-08-19T10:00:25.191Z,28.97
2023-08-19T10:01:25.184Z,28.95
2023-08-19T10:02:25.120Z,28.96
2023-08-19T10:03:25.223Z,29.05
2023-08-19T10:04:25.139Z,29.15
2023-08-19T10:05:25.151Z,29.24
2023-08-19T10:06:25.063Z,29.30
2023-08-19T10:07:25.065Z,29.35
2023-08-19T10:08:25.289Z,29.36
2023-08-19T10:09:25.090Z,29.29
2023-08-19T10:10:25.074Z,29.23
2023-08-19T10:11:25.053Z,29.22
2023-08-19T10:12:25.252Z,29.18
2023-08-19T10:13:25.022Z,29.13
2023-08-19T10:14:25.071Z,29.07
2023-08-19T10:15:25.009Z,29.01
2023-08-19T10:16:25.008Z,29.03
2023-08-19T10:17:25.010Z,29.15
2023-08-19T10:18:24.981Z,29.33
2023-08-19T10:19:24.981Z,29.35
2023-08-19T10:20:24.993Z,29.30
2023-08-19T10:21:24.966Z,29.26
2023-08-19T10:22:24.923Z,29.28
2023-08-19T10:23:24.943Z,29.46
2023-08-19T10:24:24.931Z,29.72
2023-08-19T10:25:24.878Z,29.97
2023-08-19T10:26:24.954Z,30.15
2023-08-19T10:27:24.895Z,30.24
2023-08-19T10:28:24.864Z,30.17
2023-08-19T10:29:24.874Z,30.02
2023-08-19T10:30:24.884Z,29.87
2023-08-19T10:31:24.863Z,29.74
2023-08-19T10:32:24.824Z,29.70
2023-08-19T10:33:24.835Z,29.77
2023-08-19T10:34:24.806Z,29.89
2023-08-19T10:35:24.809Z,30.06
2023-08-19T10:36:24.821Z,30.08
2023-08-19T10:37:24.764Z,29.88
2023-08-19T10:38:24.765Z,29.70
2023-08-19T10:39:24.759Z,29.56
2023-08-19T10:40:24.788Z,29.44
2023-08-19T10:41:24.764Z,29.44
2023-08-19T10:42:24.756Z,29.54
2023-08-19T10:43:24.719Z,29.65
2023-08-19T10:44:24.739Z,29.82
2023-08-19T10:45:24.721Z,30.00
2023-08-19T10:46:24.765Z,30.06
2023-08-19T10:47:24.729Z,30.01
2023-08-19T10:48:24.689Z,29.94
2023-08-19T10:49:24.666Z,29.93
2023-08-19T10:50:24.661Z,29.93
2023-08-19T10:51:24.638Z,29.93
2023-08-19T10:52:24.679Z,29.97
2023-08-19T10:53:24.622Z,30.10
2023-08-19T10:54:24.634Z,30.27
2023-08-19T10:55:24.613Z,30.44
2023-08-19T10:56:24.567Z,30.56
2023-08-19T10:57:24.641Z,30.57
2023-08-19T10:58:24.549Z,30.56
2023-08-19T10:59:24.582Z,30.62
2023-08-19T11:00:24.577Z,30.65
2023-08-19T11:01:24.580Z,30.68
2023-08-19T11:02:24.556Z,30.68
2023-08-19T11:03:24.526Z,30.68
2023-08-19T11:04:24.553Z,30.72
2023-08-19T11:05:24.500Z,30.73
2023-08-19T11:06:24.479Z,30.68
2023-08-19T11:07:24.513Z,30.61
2023-08-19T11:08:24.482Z,30.52
2023-08-19T11:09:24.491Z,30.52
2023-08-19T11:10:24.488Z,30.52
2023-08-19T11:11:24.471Z,30.50
2023-08-19T11:12:24.504Z,30.47
2023-08-19T11:13:24.402Z,30.46
2023-08-19T11:14:24.429Z,30.50
2023-08-19T11:15:24.441Z,30.52
2023-08-19T11:16:24.481Z,30.50
2023-08-19T11:17:24.431Z,30.49
2023-08-19T11:18:24.422Z,30.49
2023-08-19T11:19:24.360Z,30.53
2023-08-19T11:20:24.369Z,30.58
2023-08-19T11:21:24.325Z,30.61
2023-08-19T11:22:24.386Z,30.69
2023-08-19T11:23:24.338Z,30.89
2023-08-19T11:24:24.283Z,31.19
2023-08-19T11:25:24.293Z,31.57
2023-08-19T11:26:24.314Z,31.95
2023-08-19T11:27:24.282Z,32.30
2023-08-19T11:28:24.325Z,32.61
2023-08-19T11:29:24.281Z,32.89
2023-08-19T11:30:24.260Z,33.14
2023-08-19T11:31:24.241Z,33.31
2023-08-19T11:32:24.214Z,33.30
2023-08-19T11:33:25.383Z,33.01
2023-08-19T11:34:24.204Z,32.58
2023-08-19T11:35:24.192Z,32.10
2023-08-19T11:36:24.202Z,31.66
2023-08-19T11:37:24.209Z,31.40
2023-08-19T11:38:24.178Z,31.26
2023-08-19T11:39:24.179Z,31.22
2023-08-19T11:40:29.901Z,31.21
2023-08-19T11:41:24.180Z,31.26
2023-08-19T11:42:24.218Z,31.42
2023-08-19T11:43:24.139Z,31.65
2023-08-19T11:44:24.180Z,31.89
2023-08-19T11:45:24.119Z,32.12
2023-08-19T11:46:24.175Z,32.32
2023-08-19T11:47:24.127Z,32.53
2023-08-19T11:48:24.095Z,32.72
2023-08-19T11:49:24.064Z,32.91
2023-08-19T11:50:24.122Z,33.10
2023-08-19T11:51:25.549Z,33.29
2023-08-19T11:52:24.059Z,33.47
2023-08-19T11:53:24.009Z,33.61
2023-08-19T11:54:24.048Z,33.71
2023-08-19T11:55:24.036Z,33.80
2023-08-19T11:56:25.659Z,33.92
2023-08-19T11:57:23.990Z,34.01
2023-08-19T11:58:24.002Z,34.09
2023-08-19T11:59:23.994Z,34.20
2023-08-19T12:00:23.979Z,34.17
2023-08-19T12:01:24.036Z,34.04
2023-08-19T12:02:26.050Z,33.92
2023-08-19T12:03:24.078Z,33.67
2023-08-19T12:04:23.935Z,33.36
2023-08-19T12:05:23.944Z,33.16
2023-08-19T12:06:23.941Z,33.14
2023-08-19T12:07:23.872Z,33.25
2023-08-19T12:08:25.893Z,33.32
2023-08-19T12:09:23.908Z,33.35
2023-08-19T12:10:23.903Z,33.38
2023-08-19T12:11:23.907Z,33.37
2023-08-19T12:12:24.001Z,33.40
2023-08-19T12:13:23.820Z,33.50
2023-08-19T12:14:23.845Z,33.67
2023-08-19T12:15:23.820Z,33.85
2023-08-19T12:16:23.827Z,33.97
2023-08-19T12:17:23.858Z,34.04
2023-08-19T12:18:23.816Z,34.07
2023-08-19T12:19:23.834Z,34.04
2023-08-19T12:20:23.800Z,34.01
2023-08-19T12:21:23.799Z,34.04
2023-08-19T12:22:23.807Z,34.13
2023-08-19T12:23:23.777Z,34.24
2023-08-19T12:24:23.752Z,34.37
2023-08-19T12:25:23.727Z,34.31
2023-08-19T12:26:23.724Z,34.01
2023-08-19T12:27:23.732Z,33.63
2023-08-19T12:28:23.737Z,33.31
2023-08-19T12:29:23.716Z,33.05
2023-08-19T12:30:23.704Z,32.93
2023-08-19T12:31:23.703Z,32.95
2023-08-19T12:32:23.664Z,33.07
2023-08-19T12:33:23.741Z,33.25
2023-08-19T12:34:23.651Z,33.45
2023-08-19T12:35:23.686Z,33.51
2023-08-19T12:36:23.654Z,33.47
2023-08-19T12:37:23.629Z,33.39
2023-08-19T12:38:23.594Z,33.22
2023-08-19T12:39:23.651Z,33.09
2023-08-19T12:40:23.571Z,33.07
2023-08-19T12:41:23.603Z,33.14
2023-08-19T12:42:29.081Z,33.30
2023-08-19T12:43:23.591Z,33.54
2023-08-19T12:44:23.581Z,33.83
2023-08-19T12:45:23.600Z,34.08
2023-08-19T12:46:23.561Z,34.24
2023-08-19T12:47:23.536Z,34.35
2023-08-19T12:48:23.535Z,34.38
2023-08-19T12:49:23.513Z,34.16
2023-08-19T12:50:23.519Z,33.93
2023-08-19T12:51:23.494Z,33.87
2023-08-19T12:52:23.502Z,33.90